sensor_id;sensor_type;location;lat;lon;timestamp;P1;durP1;ratioP1;P2;durP2;ratioP2
56481;SDS011;42384;45.186;19.958;2023-07-31T00:00:32;4.82;;;3.22;;
56481;SDS011;42384;45.186;19.958;2023-07-31T00:02:59;9.73;;;3.63;;
56481;SDS011;42384;45.186;19.958;2023-07-31T00:05:25;7.28;;;4.30;;
56481;SDS011;42384;45.186;19.958;2023-07-31T00:07:51;8.15;;;4.30;;
56481;SDS011;42384;45.186;19.958;2023-07-31T00:10:19;7.60;;;3.67;;
56481;SDS011;42384;45.186;19.958;2023-07-31T00:12:45;7.35;;;3.35;;
56481;SDS011;42384;45.186;19.958;2023-07-31T00:15:12;5.13;;;3.17;;
56481;SDS011;42384;45.186;19.958;2023-07-31T00:17:39;11.45;;;4.55;;
56481;SDS011;42384;45.186;19.958;2023-07-31T00:20:05;5.35;;;3.70;;
56481;SDS011;42384;45.186;19.958;2023-07-31T00:24:57;8.90;;;3.80;;
56481;SDS011;42384;45.186;19.958;2023-07-31T00:27:25;4.10;;;3.20;;
56481;SDS011;42384;45.186;19.958;2023-07-31T00:29:51;6.93;;;3.28;;
56481;SDS011;42384;45.186;19.958;2023-07-31T00:32:17;6.18;;;3.80;;
56481;SDS011;42384;45.186;19.958;2023-07-31T00:34:43;6.88;;;3.28;;
56481;SDS011;42384;45.186;19.958;2023-07-31T00:37:10;5.00;;;3.22;;
56481;SDS011;42384;45.186;19.958;2023-07-31T00:39:36;10.60;;;3.65;;
56481;SDS011;42384;45.186;19.958;2023-07-31T00:42:02;5.28;;;2.92;;
56481;SDS011;42384;45.186;19.958;2023-07-31T00:44:29;8.40;;;4.05;;
56481;SDS011;42384;45.186;19.958;2023-07-31T00:46:55;7.63;;;3.83;;
56481;SDS011;42384;45.186;19.958;2023-07-31T00:49:24;8.45;;;4.13;;
56481;SDS011;42384;45.186;19.958;2023-07-31T00:51:50;9.45;;;3.92;;
56481;SDS011;42384;45.186;19.958;2023-07-31T00:54:17;11.35;;;4.22;;
56481;SDS011;42384;45.186;19.958;2023-07-31T00:56:45;8.07;;;3.70;;
56481;SDS011;42384;45.186;19.958;2023-07-31T00:59:13;12.57;;;4.07;;
56481;SDS011;42384;45.186;19.958;2023-07-31T01:04:06;5.07;;;3.83;;
56481;SDS011;42384;45.186;19.958;2023-07-31T01:09:25;8.63;;;3.72;;
56481;SDS011;42384;45.186;19.958;2023-07-31T01:11:58;5.70;;;3.80;;
56481;SDS011;42384;45.186;19.958;2023-07-31T01:14:26;4.43;;;3.22;;
56481;SDS011;42384;45.186;19.958;2023-07-31T01:16:52;7.10;;;3.75;;
56481;SDS011;42384;45.186;19.958;2023-07-31T01:19:21;6.97;;;3.70;;
56481;SDS011;42384;45.186;19.958;2023-07-31T01:24:36;9.50;;;4.13;;
56481;SDS011;42384;45.186;19.958;2023-07-31T01:27:12;4.55;;;3.60;;
56481;SDS011;42384;45.186;19.958;2023-07-31T01:29:44;7.50;;;3.97;;
56481;SDS011;42384;45.186;19.958;2023-07-31T01:32:11;4.70;;;3.75;;
56481;SDS011;42384;45.186;19.958;2023-07-31T01:34:38;5.68;;;3.85;;
56481;SDS011;42384;45.186;19.958;2023-07-31T01:37:05;6.53;;;4.00;;
56481;SDS011;42384;45.186;19.958;2023-07-31T01:39:31;5.25;;;3.67;;
56481;SDS011;42384;45.186;19.958;2023-07-31T01:41:58;5.07;;;4.15;;
56481;SDS011;42384;45.186;19.958;2023-07-31T01:44:24;7.07;;;3.80;;
56481;SDS011;42384;45.186;19.958;2023-07-31T01:46:50;7.50;;;4.18;;
56481;SDS011;42384;45.186;19.958;2023-07-31T01:49:16;6.75;;;3.60;;
56481;SDS011;42384;45.186;19.958;2023-07-31T01:51:42;7.30;;;3.88;;
56481;SDS011;42384;45.186;19.958;2023-07-31T01:54:09;6.25;;;4.22;;
56481;SDS011;42384;45.186;19.958;2023-07-31T01:56:36;4.70;;;3.70;;
56481;SDS011;42384;45.186;19.958;2023-07-31T01:59:02;6.50;;;4.05;;
56481;SDS011;42384;45.186;19.958;2023-07-31T02:01:28;6.82;;;3.92;;
56481;SDS011;42384;45.186;19.958;2023-07-31T02:03:55;6.25;;;3.97;;
56481;SDS011;42384;45.186;19.958;2023-07-31T02:06:21;5.18;;;3.75;;
56481;SDS011;42384;45.186;19.958;2023-07-31T02:08:47;8.30;;;3.67;;
56481;SDS011;42384;45.186;19.958;2023-07-31T02:13:40;9.00;;;4.25;;
56481;SDS011;42384;45.186;19.958;2023-07-31T02:16:06;7.85;;;4.55;;
56481;SDS011;42384;45.186;19.958;2023-07-31T02:18:33;6.05;;;3.38;;
56481;SDS011;42384;45.186;19.958;2023-07-31T02:20:59;7.78;;;5.15;;
56481;SDS011;42384;45.186;19.958;2023-07-31T02:23:25;8.93;;;4.90;;
56481;SDS011;42384;45.186;19.958;2023-07-31T02:25:51;7.35;;;4.45;;
56481;SDS011;42384;45.186;19.958;2023-07-31T02:28:18;7.05;;;4.65;;
56481;SDS011;42384;45.186;19.958;2023-07-31T02:30:44;8.82;;;4.40;;
56481;SDS011;42384;45.186;19.958;2023-07-31T02:33:11;5.03;;;4.10;;
56481;SDS011;42384;45.186;19.958;2023-07-31T02:35:37;6.38;;;4.45;;
56481;SDS011;42384;45.186;19.958;2023-07-31T02:38:04;7.68;;;4.15;;
56481;SDS011;42384;45.186;19.958;2023-07-31T02:40:30;12.10;;;4.35;;
56481;SDS011;42384;45.186;19.958;2023-07-31T02:42:56;5.75;;;4.38;;
56481;SDS011;42384;45.186;19.958;2023-07-31T02:45:22;11.27;;;4.88;;
56481;SDS011;42384;45.186;19.958;2023-07-31T02:47:48;5.70;;;4.50;;
56481;SDS011;42384;45.186;19.958;2023-07-31T02:50:15;7.68;;;4.45;;
56481;SDS011;42384;45.186;19.958;2023-07-31T02:52:41;6.03;;;4.22;;
56481;SDS011;42384;45.186;19.958;2023-07-31T02:55:07;8.82;;;4.25;;
56481;SDS011;42384;45.186;19.958;2023-07-31T02:57:33;7.95;;;4.32;;
56481;SDS011;42384;45.186;19.958;2023-07-31T03:00:00;6.15;;;4.22;;
56481;SDS011;42384;45.186;19.958;2023-07-31T03:02:27;7.55;;;5.63;;
56481;SDS011;42384;45.186;19.958;2023-07-31T03:04:53;6.43;;;5.22;;
56481;SDS011;42384;45.186;19.958;2023-07-31T03:07:20;7.60;;;4.95;;
56481;SDS011;42384;45.186;19.958;2023-07-31T03:09:46;8.02;;;5.65;;
56481;SDS011;42384;45.186;19.958;2023-07-31T03:12:12;8.90;;;5.60;;
56481;SDS011;42384;45.186;19.958;2023-07-31T03:14:38;6.90;;;5.15;;
56481;SDS011;42384;45.186;19.958;2023-07-31T03:17:05;14.00;;;5.22;;
56481;SDS011;42384;45.186;19.958;2023-07-31T03:19:32;10.43;;;4.72;;
56481;SDS011;42384;45.186;19.958;2023-07-31T03:24:24;8.50;;;5.25;;
56481;SDS011;42384;45.186;19.958;2023-07-31T03:26:51;9.75;;;4.95;;
56481;SDS011;42384;45.186;19.958;2023-07-31T03:29:17;7.25;;;4.85;;
56481;SDS011;42384;45.186;19.958;2023-07-31T03:31:43;5.43;;;4.22;;
56481;SDS011;42384;45.186;19.958;2023-07-31T03:34:09;6.85;;;5.63;;
56481;SDS011;42384;45.186;19.958;2023-07-31T03:36:35;8.93;;;5.60;;
56481;SDS011;42384;45.186;19.958;2023-07-31T03:39:02;9.88;;;5.50;;
56481;SDS011;42384;45.186;19.958;2023-07-31T03:41:28;7.22;;;5.15;;
56481;SDS011;42384;45.186;19.958;2023-07-31T03:43:55;6.40;;;4.60;;
56481;SDS011;42384;45.186;19.958;2023-07-31T03:46:21;6.30;;;4.55;;
56481;SDS011;42384;45.186;19.958;2023-07-31T03:51:13;7.55;;;4.63;;
56481;SDS011;42384;45.186;19.958;2023-07-31T03:53:40;7.55;;;4.95;;
56481;SDS011;42384;45.186;19.958;2023-07-31T03:56:06;11.27;;;4.72;;
56481;SDS011;42384;45.186;19.958;2023-07-31T03:58:32;6.15;;;4.63;;
56481;SDS011;42384;45.186;19.958;2023-07-31T04:00:58;7.60;;;5.75;;
56481;SDS011;42384;45.186;19.958;2023-07-31T04:03:25;8.68;;;4.22;;
56481;SDS011;42384;45.186;19.958;2023-07-31T04:05:51;7.25;;;4.50;;
56481;SDS011;42384;45.186;19.958;2023-07-31T04:08:17;7.90;;;4.55;;
56481;SDS011;42384;45.186;19.958;2023-07-31T04:10:43;5.43;;;4.20;;
56481;SDS011;42384;45.186;19.958;2023-07-31T04:13:10;7.15;;;4.82;;
56481;SDS011;42384;45.186;19.958;2023-07-31T04:15:36;7.20;;;3.85;;
56481;SDS011;42384;45.186;19.958;2023-07-31T04:18:02;6.15;;;3.85;;
56481;SDS011;42384;45.186;19.958;2023-07-31T04:20:28;6.32;;;3.75;;
56481;SDS011;42384;45.186;19.958;2023-07-31T04:22:54;9.60;;;3.85;;
56481;SDS011;42384;45.186;19.958;2023-07-31T04:25:21;5.88;;;3.30;;
56481;SDS011;42384;45.186;19.958;2023-07-31T04:27:47;6.63;;;2.95;;
56481;SDS011;42384;45.186;19.958;2023-07-31T04:30:13;4.13;;;3.28;;
56481;SDS011;42384;45.186;19.958;2023-07-31T04:32:39;5.50;;;3.63;;
56481;SDS011;42384;45.186;19.958;2023-07-31T04:35:06;5.95;;;4.07;;
56481;SDS011;42384;45.186;19.958;2023-07-31T04:37:32;4.43;;;3.40;;
56481;SDS011;42384;45.186;19.958;2023-07-31T04:39:58;8.85;;;3.58;;
56481;SDS011;42384;45.186;19.958;2023-07-31T04:42:25;5.07;;;4.10;;
56481;SDS011;42384;45.186;19.958;2023-07-31T04:44:51;4.35;;;2.95;;
56481;SDS011;42384;45.186;19.958;2023-07-31T04:47:18;8.80;;;3.88;;
56481;SDS011;42384;45.186;19.958;2023-07-31T04:49:44;5.25;;;3.38;;
56481;SDS011;42384;45.186;19.958;2023-07-31T04:52:10;6.65;;;3.83;;
56481;SDS011;42384;45.186;19.958;2023-07-31T04:54:37;6.32;;;3.42;;
56481;SDS011;42384;45.186;19.958;2023-07-31T04:57:03;5.57;;;3.58;;
56481;SDS011;42384;45.186;19.958;2023-07-31T04:59:29;9.63;;;3.72;;
56481;SDS011;42384;45.186;19.958;2023-07-31T05:01:56;5.05;;;3.78;;
56481;SDS011;42384;45.186;19.958;2023-07-31T05:04:22;6.40;;;3.50;;
56481;SDS011;42384;45.186;19.958;2023-07-31T05:06:49;5.05;;;3.08;;
56481;SDS011;42384;45.186;19.958;2023-07-31T05:09:15;4.65;;;3.47;;
56481;SDS011;42384;45.186;19.958;2023-07-31T05:11:41;4.20;;;3.40;;
56481;SDS011;42384;45.186;19.958;2023-07-31T05:14:08;4.85;;;3.72;;
56481;SDS011;42384;45.186;19.958;2023-07-31T05:16:34;6.53;;;3.03;;
56481;SDS011;42384;45.186;19.958;2023-07-31T05:19:01;4.95;;;3.05;;
56481;SDS011;42384;45.186;19.958;2023-07-31T05:21:27;6.22;;;2.85;;
56481;SDS011;42384;45.186;19.958;2023-07-31T05:23:54;4.90;;;2.88;;
56481;SDS011;42384;45.186;19.958;2023-07-31T05:26:20;6.30;;;2.97;;
56481;SDS011;42384;45.186;19.958;2023-07-31T05:28:46;5.15;;;3.15;;
56481;SDS011;42384;45.186;19.958;2023-07-31T05:31:12;5.47;;;2.85;;
56481;SDS011;42384;45.186;19.958;2023-07-31T05:33:39;3.50;;;2.38;;
56481;SDS011;42384;45.186;19.958;2023-07-31T05:36:05;3.92;;;2.33;;
56481;SDS011;42384;45.186;19.958;2023-07-31T05:38:31;5.57;;;2.80;;
56481;SDS011;42384;45.186;19.958;2023-07-31T05:40:57;6.55;;;2.40;;
56481;SDS011;42384;45.186;19.958;2023-07-31T05:43:24;6.28;;;2.92;;
56481;SDS011;42384;45.186;19.958;2023-07-31T05:45:50;5.88;;;2.75;;
56481;SDS011;42384;45.186;19.958;2023-07-31T05:48:16;8.32;;;3.00;;
56481;SDS011;42384;45.186;19.958;2023-07-31T05:50:43;5.72;;;2.30;;
56481;SDS011;42384;45.186;19.958;2023-07-31T05:53:09;3.33;;;2.20;;
56481;SDS011;42384;45.186;19.958;2023-07-31T05:55:36;5.40;;;2.42;;
56481;SDS011;42384;45.186;19.958;2023-07-31T05:58:02;5.90;;;3.00;;
56481;SDS011;42384;45.186;19.958;2023-07-31T06:00:29;7.70;;;2.42;;
56481;SDS011;42384;45.186;19.958;2023-07-31T06:02:55;4.35;;;2.50;;
56481;SDS011;42384;45.186;19.958;2023-07-31T06:05:21;5.13;;;2.25;;
56481;SDS011;42384;45.186;19.958;2023-07-31T06:10:14;3.55;;;2.33;;
56481;SDS011;42384;45.186;19.958;2023-07-31T06:12:40;6.63;;;2.38;;
56481;SDS011;42384;45.186;19.958;2023-07-31T06:15:06;4.00;;;2.20;;
56481;SDS011;42384;45.186;19.958;2023-07-31T06:17:32;3.20;;;2.58;;
56481;SDS011;42384;45.186;19.958;2023-07-31T06:19:59;7.60;;;2.45;;
56481;SDS011;42384;45.186;19.958;2023-07-31T06:22:25;4.70;;;2.20;;
56481;SDS011;42384;45.186;19.958;2023-07-31T06:24:51;6.13;;;2.40;;
56481;SDS011;42384;45.186;19.958;2023-07-31T06:27:17;4.97;;;2.22;;
56481;SDS011;42384;45.186;19.958;2023-07-31T06:29:44;4.90;;;2.15;;
56481;SDS011;42384;45.186;19.958;2023-07-31T06:32:10;3.63;;;2.30;;
56481;SDS011;42384;45.186;19.958;2023-07-31T06:34:36;3.42;;;2.30;;
56481;SDS011;42384;45.186;19.958;2023-07-31T06:37:02;3.80;;;2.50;;
56481;SDS011;42384;45.186;19.958;2023-07-31T06:39:29;6.70;;;2.70;;
56481;SDS011;42384;45.186;19.958;2023-07-31T06:44:21;3.47;;;2.10;;
56481;SDS011;42384;45.186;19.958;2023-07-31T06:46:47;8.00;;;2.58;;
56481;SDS011;42384;45.186;19.958;2023-07-31T06:49:13;10.68;;;2.42;;
56481;SDS011;42384;45.186;19.958;2023-07-31T06:51:42;4.30;;;1.90;;
56481;SDS011;42384;45.186;19.958;2023-07-31T06:54:09;3.67;;;2.00;;
56481;SDS011;42384;45.186;19.958;2023-07-31T06:56:35;5.30;;;2.28;;
56481;SDS011;42384;45.186;19.958;2023-07-31T06:59:02;4.03;;;1.85;;
56481;SDS011;42384;45.186;19.958;2023-07-31T07:01:29;5.82;;;2.30;;
56481;SDS011;42384;45.186;19.958;2023-07-31T07:03:55;8.85;;;2.40;;
56481;SDS011;42384;45.186;19.958;2023-07-31T07:06:22;7.43;;;3.05;;
56481;SDS011;42384;45.186;19.958;2023-07-31T07:08:48;4.10;;;1.85;;
56481;SDS011;42384;45.186;19.958;2023-07-31T07:11:14;4.90;;;2.53;;
56481;SDS011;42384;45.186;19.958;2023-07-31T07:13:40;3.55;;;1.70;;
56481;SDS011;42384;45.186;19.958;2023-07-31T07:16:07;4.28;;;2.13;;
56481;SDS011;42384;45.186;19.958;2023-07-31T07:20:59;4.32;;;1.90;;
56481;SDS011;42384;45.186;19.958;2023-07-31T07:23:27;4.60;;;2.33;;
56481;SDS011;42384;45.186;19.958;2023-07-31T07:28:19;6.45;;;2.35;;
56481;SDS011;42384;45.186;19.958;2023-07-31T07:30:50;4.25;;;2.00;;
56481;SDS011;42384;45.186;19.958;2023-07-31T07:33:17;7.72;;;4.68;;
56481;SDS011;42384;45.186;19.958;2023-07-31T07:35:43;4.78;;;2.15;;
56481;SDS011;42384;45.186;19.958;2023-07-31T07:38:10;5.13;;;2.60;;
56481;SDS011;42384;45.186;19.958;2023-07-31T07:40:39;7.78;;;2.67;;
56481;SDS011;42384;45.186;19.958;2023-07-31T07:43:06;6.38;;;2.67;;
56481;SDS011;42384;45.186;19.958;2023-07-31T07:47:58;4.22;;;2.50;;
56481;SDS011;42384;45.186;19.958;2023-07-31T07:50:24;8.00;;;2.60;;
56481;SDS011;42384;45.186;19.958;2023-07-31T07:52:50;4.28;;;2.30;;
56481;SDS011;42384;45.186;19.958;2023-07-31T07:55:17;6.88;;;2.42;;
56481;SDS011;42384;45.186;19.958;2023-07-31T07:57:43;5.10;;;2.42;;
56481;SDS011;42384;45.186;19.958;2023-07-31T08:00:10;6.90;;;2.78;;
56481;SDS011;42384;45.186;19.958;2023-07-31T08:02:36;6.68;;;2.55;;
56481;SDS011;42384;45.186;19.958;2023-07-31T08:05:02;7.45;;;2.38;;
56481;SDS011;42384;45.186;19.958;2023-07-31T08:07:29;6.90;;;2.22;;
56481;SDS011;42384;45.186;19.958;2023-07-31T08:09:55;3.65;;;2.10;;
56481;SDS011;42384;45.186;19.958;2023-07-31T08:12:21;5.22;;;2.17;;
56481;SDS011;42384;45.186;19.958;2023-07-31T08:14:47;4.18;;;2.38;;
56481;SDS011;42384;45.186;19.958;2023-07-31T08:17:14;5.35;;;2.72;;
56481;SDS011;42384;45.186;19.958;2023-07-31T08:19:40;4.22;;;2.50;;
56481;SDS011;42384;45.186;19.958;2023-07-31T08:24:32;5.78;;;2.65;;
56481;SDS011;42384;45.186;19.958;2023-07-31T08:26:58;4.50;;;2.47;;
56481;SDS011;42384;45.186;19.958;2023-07-31T08:29:25;3.80;;;2.30;;
56481;SDS011;42384;45.186;19.958;2023-07-31T08:31:51;6.50;;;2.45;;
56481;SDS011;42384;45.186;19.958;2023-07-31T08:34:17;5.55;;;2.42;;
56481;SDS011;42384;45.186;19.958;2023-07-31T08:39:10;5.40;;;1.92;;
56481;SDS011;42384;45.186;19.958;2023-07-31T08:41:39;8.27;;;1.98;;
56481;SDS011;42384;45.186;19.958;2023-07-31T08:44:06;5.35;;;2.45;;
56481;SDS011;42384;45.186;19.958;2023-07-31T08:46:33;6.43;;;2.60;;
56481;SDS011;42384;45.186;19.958;2023-07-31T08:48:59;7.32;;;2.22;;
56481;SDS011;42384;45.186;19.958;2023-07-31T08:51:26;4.70;;;1.98;;
56481;SDS011;42384;45.186;19.958;2023-07-31T08:53:54;5.10;;;1.80;;
56481;SDS011;42384;45.186;19.958;2023-07-31T08:56:22;7.07;;;2.67;;
56481;SDS011;42384;45.186;19.958;2023-07-31T08:58:48;4.28;;;2.03;;
56481;SDS011;42384;45.186;19.958;2023-07-31T09:03:41;4.90;;;2.08;;
56481;SDS011;42384;45.186;19.958;2023-07-31T09:06:07;3.10;;;1.77;;
56481;SDS011;42384;45.186;19.958;2023-07-31T09:11:00;6.60;;;2.00;;
56481;SDS011;42384;45.186;19.958;2023-07-31T09:13:30;3.63;;;1.48;;
56481;SDS011;42384;45.186;19.958;2023-07-31T09:15:56;3.90;;;1.55;;
56481;SDS011;42384;45.186;19.958;2023-07-31T09:18:22;4.97;;;1.63;;
56481;SDS011;42384;45.186;19.958;2023-07-31T09:23:27;2.83;;;1.38;;
56481;SDS011;42384;45.186;19.958;2023-07-31T09:26:05;2.90;;;1.50;;
56481;SDS011;42384;45.186;19.958;2023-07-31T09:28:31;2.95;;;1.63;;
56481;SDS011;42384;45.186;19.958;2023-07-31T09:30:58;7.38;;;1.83;;
56481;SDS011;42384;45.186;19.958;2023-07-31T09:33:24;3.75;;;1.50;;
56481;SDS011;42384;45.186;19.958;2023-07-31T09:35:50;2.63;;;1.50;;
56481;SDS011;42384;45.186;19.958;2023-07-31T09:38:16;3.50;;;1.70;;
56481;SDS011;42384;45.186;19.958;2023-07-31T09:40:43;7.57;;;1.40;;
56481;SDS011;42384;45.186;19.958;2023-07-31T09:43:10;5.22;;;1.73;;
56481;SDS011;42384;45.186;19.958;2023-07-31T09:45:37;4.60;;;2.20;;
56481;SDS011;42384;45.186;19.958;2023-07-31T09:48:14;5.32;;;1.83;;
56481;SDS011;42384;45.186;19.958;2023-07-31T09:53:07;3.70;;;1.38;;
56481;SDS011;42384;45.186;19.958;2023-07-31T09:55:34;3.30;;;1.33;;
56481;SDS011;42384;45.186;19.958;2023-07-31T10:00:26;4.85;;;1.48;;
56481;SDS011;42384;45.186;19.958;2023-07-31T10:02:53;2.97;;;1.27;;
56481;SDS011;42384;45.186;19.958;2023-07-31T10:05:20;8.30;;;1.70;;
56481;SDS011;42384;45.186;19.958;2023-07-31T10:10:12;3.83;;;1.67;;
56481;SDS011;42384;45.186;19.958;2023-07-31T10:12:40;3.58;;;1.60;;
56481;SDS011;42384;45.186;19.958;2023-07-31T10:15:07;6.28;;;2.28;;
56481;SDS011;42384;45.186;19.958;2023-07-31T10:17:34;10.90;;;1.88;;
56481;SDS011;42384;45.186;19.958;2023-07-31T10:20:02;5.80;;;1.70;;
56481;SDS011;42384;45.186;19.958;2023-07-31T10:22:30;4.50;;;1.48;;
56481;SDS011;42384;45.186;19.958;2023-07-31T10:25:00;4.03;;;2.00;;
56481;SDS011;42384;45.186;19.958;2023-07-31T10:27:26;8.25;;;1.80;;
56481;SDS011;42384;45.186;19.958;2023-07-31T10:29:54;10.38;;;1.73;;
56481;SDS011;42384;45.186;19.958;2023-07-31T10:32:21;9.32;;;1.88;;
56481;SDS011;42384;45.186;19.958;2023-07-31T10:34:47;3.92;;;1.90;;
56481;SDS011;42384;45.186;19.958;2023-07-31T10:39:59;3.55;;;1.60;;
56481;SDS011;42384;45.186;19.958;2023-07-31T10:42:33;3.85;;;1.50;;
56481;SDS011;42384;45.186;19.958;2023-07-31T10:45:00;3.90;;;1.67;;
56481;SDS011;42384;45.186;19.958;2023-07-31T10:47:26;5.85;;;1.55;;
56481;SDS011;42384;45.186;19.958;2023-07-31T10:49:53;2.78;;;1.48;;
56481;SDS011;42384;45.186;19.958;2023-07-31T10:52:36;3.60;;;1.55;;
56481;SDS011;42384;45.186;19.958;2023-07-31T10:55:15;5.18;;;1.70;;
56481;SDS011;42384;45.186;19.958;2023-07-31T10:57:46;6.90;;;1.73;;
56481;SDS011;42384;45.186;19.958;2023-07-31T11:00:26;4.93;;;1.60;;
56481;SDS011;42384;45.186;19.958;2023-07-31T11:08:16;12.25;;;2.30;;
56481;SDS011;42384;45.186;19.958;2023-07-31T11:10:42;5.13;;;1.58;;
56481;SDS011;42384;45.186;19.958;2023-07-31T11:13:09;5.47;;;1.63;;
56481;SDS011;42384;45.186;19.958;2023-07-31T11:15:35;5.93;;;1.77;;
56481;SDS011;42384;45.186;19.958;2023-07-31T11:18:02;6.03;;;2.00;;
56481;SDS011;42384;45.186;19.958;2023-07-31T11:20:33;7.43;;;1.75;;
56481;SDS011;42384;45.186;19.958;2023-07-31T11:23:00;7.55;;;1.60;;
56481;SDS011;42384;45.186;19.958;2023-07-31T11:25:28;5.38;;;1.60;;
56481;SDS011;42384;45.186;19.958;2023-07-31T11:27:54;5.20;;;1.52;;
56481;SDS011;42384;45.186;19.958;2023-07-31T11:30:21;5.35;;;1.48;;
56481;SDS011;42384;45.186;19.958;2023-07-31T11:32:48;7.15;;;1.40;;
56481;SDS011;42384;45.186;19.958;2023-07-31T11:35:16;8.05;;;1.27;;
56481;SDS011;42384;45.186;19.958;2023-07-31T11:37:42;2.85;;;1.45;;
56481;SDS011;42384;45.186;19.958;2023-07-31T11:40:09;4.10;;;1.38;;
56481;SDS011;42384;45.186;19.958;2023-07-31T11:42:35;10.52;;;1.60;;
56481;SDS011;42384;45.186;19.958;2023-07-31T11:45:05;4.30;;;1.65;;
56481;SDS011;42384;45.186;19.958;2023-07-31T11:47:34;6.13;;;1.50;;
56481;SDS011;42384;45.186;19.958;2023-07-31T11:50:01;4.68;;;1.30;;
56481;SDS011;42384;45.186;19.958;2023-07-31T11:52:29;5.43;;;1.40;;
56481;SDS011;42384;45.186;19.958;2023-07-31T11:54:56;6.45;;;1.70;;
56481;SDS011;42384;45.186;19.958;2023-07-31T11:57:22;6.13;;;1.50;;
56481;SDS011;42384;45.186;19.958;2023-07-31T12:02:15;4.30;;;1.30;;
56481;SDS011;42384;45.186;19.958;2023-07-31T12:04:42;6.95;;;1.80;;
56481;SDS011;42384;45.186;19.958;2023-07-31T12:07:09;4.18;;;1.50;;
56481;SDS011;42384;45.186;19.958;2023-07-31T12:09:35;3.08;;;1.10;;
56481;SDS011;42384;45.186;19.958;2023-07-31T12:12:01;7.97;;;1.35;;
56481;SDS011;42384;45.186;19.958;2023-07-31T12:14:29;8.70;;;1.50;;
56481;SDS011;42384;45.186;19.958;2023-07-31T12:17:00;9.02;;;1.67;;
56481;SDS011;42384;45.186;19.958;2023-07-31T12:19:27;5.35;;;1.40;;
56481;SDS011;42384;45.186;19.958;2023-07-31T12:21:55;7.78;;;1.73;;
56481;SDS011;42384;45.186;19.958;2023-07-31T12:24:21;4.05;;;1.40;;
56481;SDS011;42384;45.186;19.958;2023-07-31T12:29:14;3.08;;;1.60;;
56481;SDS011;42384;45.186;19.958;2023-07-31T12:34:16;2.92;;;1.45;;
56481;SDS011;42384;45.186;19.958;2023-07-31T12:36:43;6.32;;;1.80;;
56481;SDS011;42384;45.186;19.958;2023-07-31T12:41:35;3.33;;;1.50;;
56481;SDS011;42384;45.186;19.958;2023-07-31T12:44:02;10.32;;;1.92;;
56481;SDS011;42384;45.186;19.958;2023-07-31T12:48:54;5.72;;;1.70;;
56481;SDS011;42384;45.186;19.958;2023-07-31T12:51:20;4.18;;;1.63;;
56481;SDS011;42384;45.186;19.958;2023-07-31T12:53:47;4.32;;;1.70;;
56481;SDS011;42384;45.186;19.958;2023-07-31T12:56:13;2.97;;;1.50;;
56481;SDS011;42384;45.186;19.958;2023-07-31T12:58:39;3.42;;;1.60;;
56481;SDS011;42384;45.186;19.958;2023-07-31T13:01:05;5.72;;;1.65;;
56481;SDS011;42384;45.186;19.958;2023-07-31T13:05:58;4.05;;;1.65;;
56481;SDS011;42384;45.186;19.958;2023-07-31T13:10:50;4.40;;;1.90;;
56481;SDS011;42384;45.186;19.958;2023-07-31T13:13:16;4.00;;;1.42;;
56481;SDS011;42384;45.186;19.958;2023-07-31T13:15:43;3.88;;;1.67;;
56481;SDS011;42384;45.186;19.958;2023-07-31T13:18:10;6.13;;;2.10;;
56481;SDS011;42384;45.186;19.958;2023-07-31T13:20:36;5.25;;;1.40;;
56481;SDS011;42384;45.186;19.958;2023-07-31T13:23:02;4.57;;;1.23;;
56481;SDS011;42384;45.186;19.958;2023-07-31T13:25:29;5.57;;;1.45;;
56481;SDS011;42384;45.186;19.958;2023-07-31T13:27:55;2.90;;;1.40;;
56481;SDS011;42384;45.186;19.958;2023-07-31T13:30:21;5.18;;;1.67;;
56481;SDS011;42384;45.186;19.958;2023-07-31T13:35:13;3.17;;;1.67;;
56481;SDS011;42384;45.186;19.958;2023-07-31T13:37:40;5.65;;;2.05;;
56481;SDS011;42384;45.186;19.958;2023-07-31T13:40:06;6.00;;;1.48;;
56481;SDS011;42384;45.186;19.958;2023-07-31T13:42:33;3.22;;;1.83;;
56481;SDS011;42384;45.186;19.958;2023-07-31T13:44:59;8.63;;;1.38;;
56481;SDS011;42384;45.186;19.958;2023-07-31T13:47:25;4.55;;;1.75;;
56481;SDS011;42384;45.186;19.958;2023-07-31T13:49:51;3.05;;;1.35;;
56481;SDS011;42384;45.186;19.958;2023-07-31T13:52:19;2.97;;;1.27;;
56481;SDS011;42384;45.186;19.958;2023-07-31T13:54:45;6.00;;;1.55;;
56481;SDS011;42384;45.186;19.958;2023-07-31T13:57:11;6.15;;;1.52;;
56481;SDS011;42384;45.186;19.958;2023-07-31T13:59:38;2.80;;;1.40;;
56481;SDS011;42384;45.186;19.958;2023-07-31T14:02:04;3.95;;;1.75;;
56481;SDS011;42384;45.186;19.958;2023-07-31T14:06:56;4.47;;;1.63;;
56481;SDS011;42384;45.186;19.958;2023-07-31T14:09:23;6.38;;;1.85;;
56481;SDS011;42384;45.186;19.958;2023-07-31T14:14:15;6.60;;;1.58;;
56481;SDS011;42384;45.186;19.958;2023-07-31T14:16:43;6.13;;;1.83;;
56481;SDS011;42384;45.186;19.958;2023-07-31T14:19:09;3.42;;;1.38;;
56481;SDS011;42384;45.186;19.958;2023-07-31T14:21:35;4.38;;;1.65;;
56481;SDS011;42384;45.186;19.958;2023-07-31T14:24:02;3.58;;;1.42;;
56481;SDS011;42384;45.186;19.958;2023-07-31T14:26:28;3.92;;;1.13;;
56481;SDS011;42384;45.186;19.958;2023-07-31T14:28:54;4.85;;;1.80;;
56481;SDS011;42384;45.186;19.958;2023-07-31T14:31:20;2.95;;;1.48;;
56481;SDS011;42384;45.186;19.958;2023-07-31T14:33:47;4.50;;;1.20;;
56481;SDS011;42384;45.186;19.958;2023-07-31T14:36:13;2.47;;;0.95;;
56481;SDS011;42384;45.186;19.958;2023-07-31T14:38:39;4.30;;;1.30;;
56481;SDS011;42384;45.186;19.958;2023-07-31T14:41:05;5.20;;;1.65;;
56481;SDS011;42384;45.186;19.958;2023-07-31T14:43:31;4.43;;;1.30;;
56481;SDS011;42384;45.186;19.958;2023-07-31T14:45:58;3.45;;;1.30;;
56481;SDS011;42384;45.186;19.958;2023-07-31T14:48:25;4.20;;;1.27;;
56481;SDS011;42384;45.186;19.958;2023-07-31T14:50:52;2.53;;;1.20;;
56481;SDS011;42384;45.186;19.958;2023-07-31T14:53:19;9.60;;;1.92;;
56481;SDS011;42384;45.186;19.958;2023-07-31T14:55:45;4.43;;;1.60;;
56481;SDS011;42384;45.186;19.958;2023-07-31T14:58:11;3.97;;;1.50;;
56481;SDS011;42384;45.186;19.958;2023-07-31T15:00:39;5.40;;;1.50;;
56481;SDS011;42384;45.186;19.958;2023-07-31T15:05:31;3.78;;;1.45;;
56481;SDS011;42384;45.186;19.958;2023-07-31T15:10:24;5.07;;;1.63;;
56481;SDS011;42384;45.186;19.958;2023-07-31T15:12:50;3.03;;;1.23;;
56481;SDS011;42384;45.186;19.958;2023-07-31T15:15:16;8.27;;;2.05;;
56481;SDS011;42384;45.186;19.958;2023-07-31T15:20:09;6.03;;;1.75;;
56481;SDS011;42384;45.186;19.958;2023-07-31T15:22:36;5.85;;;1.50;;
56481;SDS011;42384;45.186;19.958;2023-07-31T15:25:02;3.70;;;1.80;;
56481;SDS011;42384;45.186;19.958;2023-07-31T15:27:29;5.85;;;1.63;;
56481;SDS011;42384;45.186;19.958;2023-07-31T15:29:55;5.15;;;1.42;;
56481;SDS011;42384;45.186;19.958;2023-07-31T15:32:21;3.25;;;1.27;;
56481;SDS011;42384;45.186;19.958;2023-07-31T15:34:48;6.78;;;1.40;;
56481;SDS011;42384;45.186;19.958;2023-07-31T15:37:15;5.28;;;1.80;;
56481;SDS011;42384;45.186;19.958;2023-07-31T15:39:42;2.97;;;1.30;;
56481;SDS011;42384;45.186;19.958;2023-07-31T15:44:35;7.10;;;2.05;;
56481;SDS011;42384;45.186;19.958;2023-07-31T15:47:02;5.15;;;1.45;;
56481;SDS011;42384;45.186;19.958;2023-07-31T15:49:28;3.42;;;1.48;;
56481;SDS011;42384;45.186;19.958;2023-07-31T15:51:54;4.47;;;1.30;;
56481;SDS011;42384;45.186;19.958;2023-07-31T15:56:46;8.70;;;1.80;;
56481;SDS011;42384;45.186;19.958;2023-07-31T15:59:13;3.47;;;1.20;;
56481;SDS011;42384;45.186;19.958;2023-07-31T16:01:39;4.13;;;1.48;;
56481;SDS011;42384;45.186;19.958;2023-07-31T16:06:31;4.85;;;1.67;;